Time;durP1;ratioP1;P1;durP2;ratioP2;P2;SDS_P1;SDS_P2;PMS_P1;PMS_P2;Temp;Humidity;BMP_temperature;BMP_pressure;BME280_temperature;BME280_humidity;BME280_pressure;Samples;Min_cycle;Max_cycle;Signal;HPM_P1;HPM_P2
2022/08/11 00:01:48;;;;;;;;;12.50;12.25;;;;;26.33;31.17;101534.09;6337980;22;45418;-77
2022/08/11 00:04:15;;;;;;;;;12.25;12.00;;;;;26.31;31.04;101522.50;6338163;22;45458;-78
2022/08/11 00:06:44;;;;;;;;;12.50;12.50;;;;;26.28;31.10;101524.53;6309851;22;45368;-78
2022/08/11 00:09:19;;;;;;;;;11.25;10.25;;;;;26.24;31.47;101529.22;6340122;22;45245;-78
2022/08/11 00:11:48;;;;;;;;;12.25;12.25;;;;;26.18;31.52;101530.44;6313175;22;45822;-78
2022/08/11 00:14:26;;;;;;;;;11.00;10.25;;;;;26.18;31.35;101529.56;6339349;22;45756;-78
2022/08/11 00:17:01;;;;;;;;;9.50;9.50;;;;;26.15;31.35;101525.22;6338602;22;45329;-78
2022/08/11 00:19:29;;;;;;;;;10.00;10.00;;;;;26.13;31.02;101532.50;6310354;22;45360;-78
2022/08/11 00:21:56;;;;;;;;;8.50;8.50;;;;;26.09;31.48;101530.97;6310344;22;45271;-78
2022/08/11 00:24:23;;;;;;;;;12.75;12.75;;;;;26.05;31.55;101520.41;6310402;22;47134;-78
2022/08/11 00:26:53;;;;;;;;;10.75;10.75;;;;;26.05;31.22;101532.09;6338394;22;45381;-78
2022/08/11 00:29:20;;;;;;;;;9.25;8.50;;;;;26.02;31.82;101524.16;6339166;22;45286;-78
2022/08/11 00:31:51;;;;;;;;;13.50;11.75;;;;;26.01;31.41;101526.94;6340808;22;45279;-78
2022/08/11 00:34:26;;;;;;;;;11.75;11.75;;;;;25.97;31.74;101531.63;6341966;22;46569;-78
2022/08/11 00:37:18;;;;;;;;;12.25;11.00;;;;;25.90;31.73;101524.84;6313225;22;45799;-78
2022/08/11 00:39:48;;;;;;;;;10.00;10.00;;;;;25.89;31.49;101532.06;6313495;22;45264;-78
2022/08/11 00:42:31;;;;;;;;;10.75;10.75;;;;;25.84;31.87;101533.28;6341031;22;45323;-78
2022/08/11 00:45:13;;;;;;;;;15.25;12.00;;;;;25.81;31.73;101528.88;6312265;22;47737;-78
2022/08/11 00:48:11;;;;;;;;;12.25;11.75;;;;;25.77;31.73;101530.03;6313224;22;45388;-78
2022/08/11 00:50:47;;;;;;;;;13.00;12.00;;;;;25.75;31.96;101532.78;6250310;22;45274;-77
2022/08/11 00:53:16;;;;;;;;;12.50;11.75;;;;;25.72;32.17;101541.06;6312641;22;45220;-78
2022/08/11 00:56:12;;;;;;;;;11.75;11.75;;;;;25.69;32.17;101530.44;6312659;22;46121;-78
2022/08/11 00:58:46;;;;;;;;;13.00;12.00;;;;;25.69;32.28;101538.53;6341788;22;45318;-78
2022/08/11 01:01:15;;;;;;;;;13.00;13.00;;;;;25.67;32.36;101535.03;6341364;22;45246;-78
2022/08/11 01:04:20;;;;;;;;;11.25;11.25;;;;;25.65;32.22;101542.34;6341755;22;45273;-78
2022/08/11 01:07:06;;;;;;;;;13.25;12.75;;;;;25.61;32.03;101532.69;6312661;22;47393;-78
2022/08/11 01:09:50;;;;;;;;;11.25;11.25;;;;;25.60;32.12;101536.31;6313065;22;45303;-78
2022/08/11 01:12:40;;;;;;;;;14.00;13.00;;;;;25.58;32.59;101531.97;6341586;22;45196;-78
2022/08/11 01:15:24;;;;;;;;;13.75;12.50;;;;;25.52;32.07;101534.03;6341490;22;45359;-78
2022/08/11 01:18:27;;;;;;;;;12.25;12.00;;;;;25.46;32.36;101534.38;6312474;22;48429;-78
2022/08/11 01:21:01;;;;;;;;;13.75;10.50;;;;;25.41;32.01;101538.28;6312998;22;45232;-78
2022/08/11 01:24:04;;;;;;;;;10.50;10.50;;;;;25.35;32.33;101531.38;6341466;22;45318;-78
2022/08/11 01:27:03;;;;;;;;;10.75;9.00;;;;;25.29;32.75;101531.72;6341128;22;45496;-78
2022/08/11 01:29:53;;;;;;;;;10.75;9.50;;;;;25.27;32.94;101539.00;6313352;22;47429;-78
2022/08/11 01:32:43;;;;;;;;;12.00;11.50;;;;;25.22;32.91;101527.59;6313067;22;45597;-79
2022/08/11 01:35:20;;;;;;;;;10.75;10.75;;;;;25.16;32.98;101533.31;6312959;22;45283;-78
2022/08/11 01:38:30;;;;;;;;;11.25;11.25;;;;;25.13;32.99;101537.00;6312666;22;45673;-79
2022/08/11 01:41:14;;;;;;;;;10.00;10.00;;;;;25.07;33.19;101530.13;6312945;22;48068;-78
2022/08/11 01:47:49;;;;;;;;;12.25;12.25;;;;;25.01;32.80;101527.72;6341548;22;45418;-78
2022/08/11 01:50:37;;;;;;;;;12.75;11.75;;;;;24.96;33.60;101529.78;6340852;22;45394;-78
2022/08/11 01:53:27;;;;;;;;;12.00;12.00;;;;;24.91;33.91;101528.28;6340362;22;46426;-78
2022/08/11 01:56:19;;;;;;;;;15.75;14.00;;;;;24.89;34.00;101535.59;6312401;22;45145;-78
2022/08/11 01:58:46;;;;;;;;;14.00;13.00;;;;;24.86;34.52;101542.00;6312932;22;45342;-78
2022/08/11 02:01:36;;;;;;;;;14.75;12.75;;;;;24.82;34.86;101535.00;6312795;22;45135;-78
2022/08/11 02:04:42;;;;;;;;;15.00;13.25;;;;;24.79;34.32;101537.88;6324362;22;45354;-78
2022/08/11 02:07:33;;;;;;;;;12.00;11.50;;;;;24.76;34.68;101532.63;6312433;22;46193;-78
2022/08/11 02:13:41;;;;;;;;;13.00;12.00;;;;;24.68;34.89;101534.84;6282355;22;45192;-78
2022/08/11 02:16:18;;;;;;;;;10.25;10.25;;;;;24.64;34.37;101531.41;6302956;22;47605;-78
2022/08/11 02:25:01;;;;;;;;;12.75;11.50;;;;;24.48;34.41;101539.38;6341246;22;45176;-78
2022/08/11 02:27:40;;;;;;;;;12.25;11.00;;;;;24.47;35.08;101536.78;6335954;22;46265;-78
2022/08/11 02:30:13;;;;;;;;;13.75;13.75;;;;;24.43;35.42;101533.31;6312896;22;45267;-78
2022/08/11 02:35:49;;;;;;;;;13.75;13.75;;;;;24.32;36.22;101525.75;6342260;22;45152;-78
2022/08/11 02:38:31;;;;;;;;;14.00;13.50;;;;;24.32;36.27;101536.53;6313584;22;47756;-78
2022/08/11 02:41:00;;;;;;;;;14.50;14.50;;;;;24.31;37.02;101532.09;6313574;22;45386;-78
2022/08/11 02:43:48;;;;;;;;;14.25;13.25;;;;;24.28;37.20;101536.78;6341953;22;45126;-78
2022/08/11 02:46:45;;;;;;;;;13.50;13.50;;;;;24.25;36.82;101531.53;6342148;22;45171;-78
2022/08/11 02:52:44;;;;;;;;;12.25;12.25;;;;;24.16;37.08;101520.28;6341997;22;45393;-78
2022/08/11 02:55:20;;;;;;;;;14.00;13.50;;;;;24.16;36.96;101532.84;6313762;22;45227;-78
2022/08/11 02:58:13;;;;;;;;;14.50;13.00;;;;;24.11;37.46;101530.38;6313315;22;45789;-78
2022/08/11 03:00:53;;;;;;;;;16.25;15.75;;;;;24.07;37.65;101533.28;6313580;22;45834;-78
2022/08/11 03:03:58;;;;;;;;;16.00;16.00;;;;;24.01;37.42;101537.16;6339906;22;45321;-78
2022/08/11 03:06:37;;;;;;;;;14.75;14.75;;;;;23.93;38.18;101531.25;6276976;22;45398;-78
2022/08/11 03:09:17;;;;;;;;;15.75;15.75;;;;;23.88;37.78;101535.97;6313539;22;45283;-78
2022/08/11 03:18:03;;;;;;;;;14.75;14.25;;;;;23.74;38.07;101534.81;6341961;22;45192;-78
2022/08/11 03:20:40;;;;;;;;;13.50;13.50;;;;;23.70;38.87;101524.22;6341602;22;45263;-78
2022/08/11 03:23:18;;;;;;;;;15.50;14.25;;;;;23.66;38.69;101528.00;6341640;22;45568;-78
2022/08/11 03:26:14;;;;;;;;;14.50;13.50;;;;;23.55;38.52;101518.63;6313675;22;45258;-78
2022/08/11 03:29:00;;;;;;;;;19.50;17.75;;;;;23.56;38.89;101532.91;6313494;22;45197;-78
2022/08/11 03:31:52;;;;;;;;;15.00;14.25;;;;;23.51;38.77;101526.88;6313742;22;45216;-78
2022/08/11 03:34:24;;;;;;;;;18.75;16.50;;;;;23.43;38.83;101520.97;6342151;22;46190;-78
2022/08/11 03:37:08;;;;;;;;;20.50;17.50;;;;;23.40;39.16;101524.66;6313240;22;45282;-78
2022/08/11 03:39:58;;;;;;;;;14.75;13.50;;;;;23.33;39.39;101525.88;6313924;22;45275;-78
2022/08/11 03:42:41;;;;;;;;;17.50;16.50;;;;;23.24;39.45;101523.59;6312980;22;45837;-78
2022/08/11 03:45:25;;;;;;;;;20.50;19.00;;;;;23.23;39.64;101529.91;6313322;22;47144;-78
2022/08/11 03:48:23;;;;;;;;;17.00;16.00;;;;;23.18;39.64;101531.94;6341940;22;45329;-78
2022/08/11 03:51:13;;;;;;;;;18.00;17.00;;;;;23.15;39.94;101538.31;6317438;22;45485;-79
2022/08/11 03:53:47;;;;;;;;;17.25;16.50;;;;;23.13;39.79;101536.66;6341472;22;45331;-78
2022/08/11 03:56:45;;;;;;;;;17.00;17.00;;;;;23.04;39.82;101521.78;6312878;22;47332;-78
2022/08/11 03:59:34;;;;;;;;;20.75;18.50;;;;;23.02;39.87;101523.69;6313129;22;45217;-78
2022/08/11 04:02:15;;;;;;;;;16.50;16.00;;;;;22.99;40.29;101519.31;6313549;22;45293;-78
2022/08/11 04:05:01;;;;;;;;;18.00;18.00;;;;;23.00;40.13;101529.09;6341978;22;45448;-78
2022/08/11 04:08:31;;;;;;;;;18.50;16.25;;;;;23.00;40.04;101531.78;6313121;22;47221;-78
2022/08/11 04:11:02;;;;;;;;;17.00;16.25;;;;;22.98;40.46;101524.75;6200320;22;45462;-78
2022/08/11 04:13:41;;;;;;;;;17.25;14.75;;;;;22.94;40.18;101531.16;6313443;22;45304;-78
2022/08/11 04:16:06;;;;;;;;;16.25;15.75;;;;;22.94;39.87;101536.53;6313464;22;45402;-78
2022/08/11 04:19:06;;;;;;;;;19.25;16.00;;;;;22.85;40.40;101529.72;6341538;22;45546;-78
2022/08/11 04:21:34;;;;;;;;;16.50;14.75;;;;;22.84;40.58;101528.84;6341865;22;45266;-78
2022/08/11 04:24:55;;;;;;;;;15.75;15.50;;;;;22.81;40.73;101536.19;6313375;22;45196;-78
2022/08/11 04:27:26;;;;;;;;;14.75;13.75;;;;;22.76;40.76;101536.38;6236403;22;46201;-77
2022/08/11 04:30:18;;;;;;;;;21.00;14.25;;;;;22.71;41.07;101529.44;6341330;22;46590;-78
2022/08/11 04:32:57;;;;;;;;;18.00;18.00;;;;;22.70;41.02;101530.38;6341887;22;45222;-78
2022/08/11 04:35:32;;;;;;;;;16.25;16.25;;;;;22.70;41.06;101543.81;6313011;22;45373;-78
2022/08/11 04:38:18;;;;;;;;;15.75;15.75;;;;;22.67;41.02;101532.25;6313149;22;45613;-78
2022/08/11 04:41:21;;;;;;;;;19.75;15.50;;;;;22.67;41.08;101536.75;6312770;22;48134;-78
2022/08/11 04:44:39;;;;;;;;;13.25;13.25;;;;;22.59;41.01;101534.38;6313478;22;45680;-78
2022/08/11 05:01:39;;;;;;;;;17.50;17.25;;;;;22.56;41.11;101530.94;6214794;22;45274;-78
2022/08/11 05:02:35;;;;;;;;;15.00;15.00;;;;;22.48;41.55;101535.75;6314365;22;45161;-78
2022/08/11 05:08:47;;;;;;;;;16.25;15.00;;;;;22.42;42.06;101543.09;6326025;22;45357;-78
2022/08/11 05:11:43;;;;;;;;;18.75;15.50;;;;;22.36;42.03;101532.63;6313196;22;45434;-77
2022/08/11 05:37:02;;;;;;;;;18.25;17.00;;;;;22.45;42.54;101561.78;6341154;22;45168;-76
2022/08/11 05:56:26;;;;;;;;;15.75;15.75;;;;;22.72;42.14;101577.72;6340828;22;45309;-75
2022/08/11 05:58:54;;;;;;;;;14.50;13.00;;;;;22.75;42.25;101574.00;6340733;22;46207;-75
2022/08/11 06:01:23;;;;;;;;;16.00;15.00;;;;;22.81;41.79;101571.94;6312100;22;47501;-75
2022/08/11 06:06:40;;;;;;;;;19.00;19.00;;;;;22.88;42.54;101572.56;6341423;22;45221;-75
2022/08/11 06:09:07;;;;;;;;;18.50;17.50;;;;;22.92;42.62;101582.25;6340721;22;45406;-75
2022/08/11 06:11:41;;;;;;;;;18.00;17.50;;;;;22.94;42.59;101582.19;6312187;22;48361;-75
2022/08/11 06:14:09;;;;;;;;;16.00;13.25;;;;;22.98;42.44;101575.78;6338843;22;45385;-75
2022/08/11 06:16:36;;;;;;;;;17.75;16.50;;;;;22.99;42.15;101572.13;6340889;22;45325;-75
2022/08/11 06:19:03;;;;;;;;;20.25;15.75;;;;;23.01;42.22;101573.81;6339099;22;45400;-75
2022/08/11 06:21:33;;;;;;;;;13.75;13.75;;;;;23.06;42.51;101568.25;6340638;22;46697;-75
2022/08/11 06:24:00;;;;;;;;;16.25;15.50;;;;;23.09;41.98;101570.81;6312146;22;46087;-76
2022/08/11 06:26:26;;;;;;;;;14.75;14.00;;;;;23.13;41.62;101580.50;6340687;22;45376;-75
2022/08/11 06:28:57;;;;;;;;;17.75;15.50;;;;;23.17;41.35;101576.72;6340937;22;45219;-75
2022/08/11 06:31:24;;;;;;;;;14.00;14.00;;;;;23.18;40.97;101575.81;6340723;22;45543;-75
2022/08/11 06:33:49;;;;;;;;;16.25;16.00;;;;;23.26;40.90;101581.72;6312708;22;45173;-75
2022/08/11 06:36:34;;;;;;;;;14.75;14.25;;;;;23.28;40.69;101574.47;6312497;22;45366;-77
2022/08/11 06:39:27;;;;;;;;;17.00;15.00;;;;;23.38;40.22;101582.97;6312270;22;45259;-75
2022/08/11 06:42:07;;;;;;;;;15.25;13.50;;;;;23.46;40.19;101580.81;6312059;22;47328;-75
2022/08/11 06:44:40;;;;;;;;;16.75;16.25;;;;;23.50;39.93;101570.84;6341063;22;45146;-75
2022/08/11 06:47:09;;;;;;;;;14.75;12.75;;;;;23.56;39.11;101570.56;6312819;22;45307;-75
2022/08/11 06:52:34;;;;;;;;;12.00;12.00;;;;;23.75;37.95;101573.31;6340082;22;45303;-74
2022/08/11 06:55:07;;;;;;;;;13.75;13.25;;;;;23.83;37.84;101573.84;6340455;22;45412;-76
2022/08/11 07:00:26;;;;;;;;;12.25;11.75;;;;;24.03;36.80;101577.41;6340322;22;45234;-74
2022/08/11 07:02:56;;;;;;;;;11.50;10.50;;;;;24.08;37.09;101576.25;6340643;22;45384;-75
2022/08/11 07:05:42;;;;;;;;;13.50;13.50;;;;;24.13;36.47;101576.03;6340343;22;45168;-76
2022/08/11 07:17:41;;;;;;;;;12.25;11.00;;;;;24.51;35.39;101571.56;6341271;22;45232;-79
2022/08/11 07:31:36;;;;;;;;;10.25;8.00;;;;;25.01;33.92;101583.44;6341799;22;45363;-82
2022/08/11 07:34:17;;;;;;;;;11.00;11.00;;;;;25.09;33.95;101579.38;6313754;22;45929;-81
2022/08/11 07:36:49;;;;;;;;;10.00;10.00;;;;;25.17;33.60;101564.69;6339259;22;47273;-86
2022/08/11 07:39:21;;;;;;;;;12.00;11.00;;;;;25.26;33.59;101569.59;6313296;22;45786;-83
2022/08/11 07:41:49;;;;;;;;;10.00;9.50;;;;;25.39;33.75;101572.53;6313401;22;45200;-83
2022/08/11 07:44:16;;;;;;;;;11.00;11.00;;;;;25.44;33.16;101568.63;6342354;22;45272;-82
2022/08/11 07:52:26;;;;;;;;;10.00;9.00;;;;;25.74;32.66;101567.94;6341636;22;45109;-84
2022/08/11 07:54:55;;;;;;;;;10.50;9.50;;;;;25.82;32.84;101557.63;6313157;22;45475;-81
2022/08/11 08:19:23;;;;;;;;;10.00;8.00;;;;;26.80;31.17;101548.53;6341530;22;45729;-81
2022/08/11 08:21:49;;;;;;;;;7.25;6.25;;;;;26.93;30.70;101562.19;6340845;22;45357;-80
2022/08/11 08:24:20;;;;;;;;;8.00;8.00;;;;;27.01;30.52;101563.47;6313804;22;45417;-80
2022/08/11 08:26:59;;;;;;;;;9.00;7.00;;;;;27.10;30.41;101551.22;6312998;22;45192;-81
2022/08/11 08:32:22;;;;;;;;;8.75;8.75;;;;;27.37;29.46;101551.44;6341503;22;45196;-80
2022/08/11 08:34:53;;;;;;;;;10.00;8.50;;;;;27.52;29.76;101551.44;6341476;22;45121;-81
2022/08/11 08:37:22;;;;;;;;;7.00;7.00;;;;;27.61;29.40;101553.56;6313038;22;45384;-80
2022/08/11 08:39:48;;;;;;;;;7.00;7.00;;;;;27.70;29.08;101543.03;6341078;22;45164;-81
2022/08/11 08:42:20;;;;;;;;;9.00;8.00;;;;;27.77;28.74;101545.34;6312853;22;45203;-81
2022/08/11 08:44:57;;;;;;;;;7.75;7.00;;;;;27.91;28.86;101546.25;6341915;22;45376;-83
2022/08/11 08:47:25;;;;;;;;;7.75;7.00;;;;;28.05;28.71;101556.19;6339080;22;45481;-83
2022/08/11 08:50:06;;;;;;;;;8.00;8.00;;;;;28.18;28.57;101552.69;6313048;22;47118;-82
2022/08/11 08:52:47;;;;;;;;;12.25;9.75;;;;;28.26;28.59;101555.78;6339004;22;45243;-88
2022/08/11 08:55:18;;;;;;;;;8.75;7.00;;;;;28.34;29.24;101550.72;6339422;22;45368;-82
2022/08/11 08:57:47;;;;;;;;;9.00;9.00;;;;;28.44;28.55;101556.41;6340810;22;45398;-81
2022/08/11 09:00:14;;;;;;;;;9.00;8.00;;;;;28.47;28.05;101545.38;6315468;22;47464;-82
2022/08/11 09:02:40;;;;;;;;;9.50;7.25;;;;;28.56;28.27;101551.06;6345036;22;45376;-83
2022/08/11 09:05:08;;;;;;;;;7.25;7.25;;;;;28.67;28.10;101560.31;6315758;22;45233;-80
2022/08/11 09:07:34;;;;;;;;;9.75;9.75;;;;;28.74;27.77;101562.50;6342772;22;45065;-79
2022/08/11 09:10:01;;;;;;;;;8.50;8.25;;;;;28.83;27.94;101560.16;6343070;22;45348;-80
2022/08/11 09:12:29;;;;;;;;;10.00;9.00;;;;;28.89;27.09;101554.31;6314028;22;45667;-79
2022/08/11 09:14:59;;;;;;;;;7.00;7.00;;;;;28.94;27.55;101550.31;6342295;22;45529;-81
2022/08/11 09:17:27;;;;;;;;;6.75;6.75;;;;;29.00;27.71;101554.44;6314987;22;45517;-82
2022/08/11 09:19:59;;;;;;;;;7.25;7.25;;;;;29.10;27.02;101547.44;6343974;22;45389;-83
2022/08/11 09:28:10;;;;;;;;;5.75;5.75;;;;;29.42;26.79;101550.63;6345476;22;45094;-83
2022/08/11 09:30:36;;;;;;;;;10.00;7.67;;;;;29.45;26.72;101533.25;6345414;22;45311;-83
2022/08/11 09:33:23;;;;;;;;;7.00;7.00;;;;;29.61;26.37;101552.03;6316171;22;46004;-83
2022/08/11 09:35:51;;;;;;;;;6.00;6.00;;;;;29.64;26.33;101531.03;6346720;22;45215;-83
2022/08/11 09:41:08;;;;;;;;;7.00;6.00;;;;;29.87;25.84;101542.06;6340180;22;45365;-78
2022/08/11 09:46:29;;;;;;;;;5.75;5.75;;;;;30.02;25.67;101534.63;6342003;22;45159;-78
2022/08/11 09:48:59;;;;;;;;;7.50;6.75;;;;;30.08;25.46;101528.75;6343587;22;45218;-80
2022/08/11 09:51:30;;;;;;;;;6.50;6.50;;;;;30.15;25.54;101529.16;6342612;22;46196;-80
2022/08/11 09:54:05;;;;;;;;;7.25;6.00;;;;;30.22;25.42;101523.16;6346228;22;45156;-79
2022/08/11 09:59:19;;;;;;;;;6.25;4.50;;;;;30.45;24.14;101526.94;6343430;22;45231;-77
2022/08/11 10:01:58;;;;;;;;;6.50;6.00;;;;;30.52;24.40;101527.31;6316166;22;47220;-78
2022/08/11 10:04:40;;;;;;;;;6.50;6.50;;;;;30.58;23.60;101523.25;6314746;22;45210;-77
2022/08/11 10:07:09;;;;;;;;;7.50;7.50;;;;;30.58;23.43;101525.97;6342165;22;45329;-77
2022/08/11 10:10:00;;;;;;;;;7.00;5.25;;;;;30.56;23.72;101526.13;6310766;22;45816;-77
2022/08/11 10:12:31;;;;;;;;;6.00;6.00;;;;;30.61;23.98;101523.03;6320968;22;47123;-77
2022/08/11 10:20:37;;;;;;;;;4.00;4.00;;;;;30.91;22.95;101507.13;6340699;22;45156;-76
2022/08/11 10:28:41;;;;;;;;;6.75;6.50;;;;;31.17;22.88;101499.66;6340621;22;45926;-78
2022/08/11 10:34:04;;;;;;;;;7.75;6.50;;;;;31.34;22.84;101492.00;6345923;22;45694;-80
2022/08/11 10:36:33;;;;;;;;;9.50;9.00;;;;;31.42;22.68;101490.41;6309009;22;45649;-79
2022/08/11 10:39:01;;;;;;;;;8.00;7.00;;;;;31.51;21.96;101491.53;6309805;22;45520;-78
2022/08/11 10:44:13;;;;;;;;;6.25;6.25;;;;;31.71;21.66;101489.06;6354623;22;45559;-79
2022/08/11 10:49:25;;;;;;;;;145.75;142.25;;;;;32.01;21.84;101483.00;6340529;22;45239;-79
2022/08/11 11:00:13;;;;;;;;;8.75;8.75;;;;;32.91;20.48;101460.84;6341725;22;45124;-79
2022/08/11 11:02:41;;;;;;;;;8.25;7.75;;;;;33.00;19.98;101465.50;6341420;22;45413;-79
2022/08/11 11:05:14;;;;;;;;;7.00;6.00;;;;;33.20;20.46;101461.06;6312869;22;48230;-79
2022/08/11 11:07:56;;;;;;;;;9.00;9.00;;;;;33.38;19.95;101473.03;6313308;22;45714;-78
2022/08/11 11:10:22;;;;;;;;;11.50;10.00;;;;;33.55;20.36;101460.66;6313101;22;45424;-79
2022/08/11 11:18:34;;;;;;;;;7.00;7.00;;;;;33.93;19.91;101450.84;6341629;22;45183;-78
2022/08/11 11:21:09;;;;;;;;;7.75;7.75;;;;;34.01;19.28;101450.16;6341748;22;45228;-79
2022/08/11 11:23:46;;;;;;;;;7.75;7.75;;;;;34.11;19.38;101445.59;6341316;22;45419;-78
2022/08/11 11:26:33;;;;;;;;;8.25;8.00;;;;;34.23;19.60;101447.19;6313316;22;47232;-78
2022/08/11 11:29:11;;;;;;;;;6.75;6.75;;;;;34.31;19.03;101445.63;6341802;22;45454;-79
2022/08/11 11:31:42;;;;;;;;;7.00;7.00;;;;;34.29;19.39;101436.69;6342198;22;45183;-79
2022/08/11 11:34:12;;;;;;;;;5.50;5.50;;;;;34.28;19.35;101443.16;6341396;22;45353;-79
2022/08/11 11:36:44;;;;;;;;;7.00;7.00;;;;;34.33;19.55;101444.47;6341494;22;45634;-79
2022/08/11 11:39:10;;;;;;;;;8.00;4.50;;;;;34.39;19.29;101430.19;6341481;22;45322;-79
2022/08/11 11:41:37;;;;;;;;;7.75;7.25;;;;;34.41;18.99;101428.19;6341501;22;45296;-78
2022/08/11 11:44:04;;;;;;;;;6.50;6.50;;;;;34.44;19.37;101438.84;6342135;22;45307;-78
2022/08/11 11:46:30;;;;;;;;;7.00;7.00;;;;;34.56;19.32;101428.59;6340250;22;45573;-78
2022/08/11 11:49:05;;;;;;;;;5.00;5.00;;;;;34.75;18.92;101425.03;6357964;22;45274;-78
2022/08/11 11:51:32;;;;;;;;;7.50;6.75;;;;;34.96;18.88;101423.97;6307116;22;45383;-78
2022/08/11 11:54:01;;;;;;;;;7.00;5.75;;;;;35.05;18.54;101414.88;6352646;22;45465;-79
2022/08/11 11:56:28;;;;;;;;;5.75;5.75;;;;;35.14;18.28;101424.94;6330984;22;47912;-77
2022/08/11 12:01:38;;;;;;;;;7.00;7.00;;;;;35.38;18.53;101420.81;6356396;22;45570;-79
2022/08/11 12:04:05;;;;;;;;;6.75;6.75;;;;;35.44;18.34;101417.47;6359206;22;44806;-78
2022/08/11 12:06:32;;;;;;;;;6.50;6.50;;;;;35.52;18.51;101402.00;6358380;22;45286;-78
2022/08/11 12:08:58;;;;;;;;;7.00;7.00;;;;;35.66;17.93;101406.16;6357066;22;45462;-78
2022/08/11 12:14:15;;;;;;;;;6.75;6.75;;;;;36.00;17.72;101411.81;6344395;22;45258;-77
2022/08/11 12:16:43;;;;;;;;;7.00;7.00;;;;;36.06;17.31;101402.16;6340934;22;45209;-78
2022/08/11 12:19:12;;;;;;;;;6.00;6.00;;;;;36.04;17.38;101392.31;6339398;22;45460;-78
2022/08/11 12:27:19;;;;;;;;;8.00;8.00;;;;;36.04;17.28;101398.66;6312997;22;45263;-78
2022/08/11 12:27:21;;;;;;;;;4.75;4.75;;;;;35.93;17.09;101402.50;6340739;22;45224;-79
2022/08/11 12:29:52;;;;;;;;;7.50;7.50;;;;;35.97;17.38;101384.72;6341591;22;45345;-79
2022/08/11 12:32:20;;;;;;;;;5.75;5.00;;;;;36.04;17.41;101382.22;6339468;22;45331;-78
2022/08/11 12:34:46;;;;;;;;;6.00;6.00;;;;;36.13;17.09;101384.03;6341270;22;45504;-78
2022/08/11 12:37:13;;;;;;;;;5.75;5.75;;;;;36.27;17.34;101379.88;6312826;22;46446;-79
2022/08/11 12:45:29;;;;;;;;;7.25;6.75;;;;;36.59;16.70;101370.22;6341554;22;45364;-79
2022/08/11 12:53:45;;;;;;;;;8.25;8.25;;;;;36.83;16.92;101358.53;6341962;22;45163;-78
2022/08/11 13:07:14;;;;;;;;;7.75;7.75;;;;;37.05;16.34;101373.59;6341401;22;45121;-78
2022/08/11 13:09:41;;;;;;;;;7.00;6.50;;;;;37.10;16.09;101357.50;6339440;22;47216;-79
2022/08/11 13:14:52;;;;;;;;;5.25;5.25;;;;;37.17;15.94;101352.22;6341750;22;45463;-78
2022/08/11 13:17:21;;;;;;;;;5.50;5.50;;;;;37.00;15.67;101348.53;6341426;22;45321;-78
2022/08/11 13:19:48;;;;;;;;;9.00;9.00;;;;;36.99;16.34;101349.53;6313129;22;47474;-78
2022/08/11 13:22:17;;;;;;;;;5.25;5.25;;;;;37.03;16.22;101346.31;6341707;22;45445;-78
2022/08/11 13:24:43;;;;;;;;;6.00;5.00;;;;;37.01;16.02;101345.59;6313304;22;45322;-78
2022/08/11 13:27:11;;;;;;;;;6.00;6.00;;;;;37.04;16.53;101347.19;6312583;22;45875;-78
2022/08/11 13:29:41;;;;;;;;;8.25;7.25;;;;;37.13;16.30;101346.22;6341482;22;45321;-78
2022/08/11 13:32:08;;;;;;;;;6.25;6.25;;;;;37.17;16.33;101347.59;6341277;22;45439;-77
2022/08/11 13:34:40;;;;;;;;;6.75;6.75;;;;;37.16;16.03;101345.00;6313254;22;45324;-77
2022/08/11 13:37:07;;;;;;;;;7.00;7.00;;;;;37.24;15.96;101332.19;6341278;22;45424;-79
2022/08/11 13:39:36;;;;;;;;;8.75;7.50;;;;;37.27;15.62;101328.25;6312804;22;48412;-77
2022/08/11 13:42:03;;;;;;;;;7.75;7.75;;;;;37.33;16.00;101329.44;6341188;22;45412;-77
2022/08/11 13:44:33;;;;;;;;;8.25;7.50;;;;;37.34;15.45;101328.41;6339761;22;45544;-77
2022/08/11 13:47:02;;;;;;;;;7.00;7.00;;;;;37.29;15.22;101332.53;6313141;22;45520;-78
2022/08/11 13:49:34;;;;;;;;;7.00;7.00;;;;;37.28;15.75;101327.19;6312840;22;48279;-78
2022/08/11 13:52:01;;;;;;;;;7.00;7.00;;;;;37.31;15.54;101322.22;6341021;22;45298;-78
2022/08/11 13:54:29;;;;;;;;;7.75;7.75;;;;;37.37;15.74;101328.97;6341259;22;45196;-77
2022/08/11 13:56:59;;;;;;;;;7.50;7.50;;;;;37.41;15.57;101329.47;6340842;22;45400;-77
2022/08/11 13:59:26;;;;;;;;;8.50;8.50;;;;;37.43;15.29;101325.53;6340760;22;45311;-78
2022/08/11 14:01:54;;;;;;;;;9.00;8.00;;;;;37.42;15.30;101320.19;6312988;22;45304;-77
2022/08/11 14:04:29;;;;;;;;;6.50;6.50;;;;;37.43;15.47;101333.78;6341326;22;45151;-79
2022/08/11 14:06:59;;;;;;;;;8.25;8.00;;;;;37.50;14.88;101325.75;6341372;22;45233;-77
2022/08/11 14:09:27;;;;;;;;;6.25;6.25;;;;;37.57;15.16;101320.44;6312631;22;47404;-78
2022/08/11 14:14:44;;;;;;;;;6.50;6.50;;;;;37.58;15.33;101314.75;6341366;22;45460;-79
2022/08/11 14:17:11;;;;;;;;;7.50;7.50;;;;;37.62;15.62;101305.16;6340806;22;45239;-78
2022/08/11 14:19:40;;;;;;;;;7.50;7.50;;;;;37.69;15.66;101321.81;6312413;22;46065;-77
2022/08/11 14:22:06;;;;;;;;;7.75;6.50;;;;;37.73;15.12;101314.97;6312565;22;45552;-78
2022/08/11 14:24:34;;;;;;;;;9.25;9.00;;;;;37.77;15.53;101319.09;6312912;22;45314;-78
2022/08/11 14:27:00;;;;;;;;;9.00;8.75;;;;;37.78;15.47;101312.59;6340242;22;45255;-79
2022/08/11 14:29:27;;;;;;;;;7.75;7.50;;;;;37.81;15.23;101312.22;6340780;22;46183;-79
2022/08/11 14:32:00;;;;;;;;;7.25;6.50;;;;;37.80;15.48;101302.28;6340880;22;45109;-79
2022/08/11 14:34:33;;;;;;;;;8.25;8.25;;;;;37.86;14.89;101300.75;6312496;22;45215;-78
2022/08/11 14:37:02;;;;;;;;;8.00;8.00;;;;;37.89;15.17;101311.38;6341070;22;45410;-78
2022/08/11 14:39:34;;;;;;;;;7.00;7.00;;;;;37.83;15.36;101307.44;6312131;22;46054;-78
2022/08/11 14:47:47;;;;;;;;;8.75;7.75;;;;;37.98;14.84;101274.63;6340385;22;45235;-77
2022/08/11 14:50:21;;;;;;;;;8.00;8.00;;;;;37.89;14.96;101286.66;6340197;22;45575;-78
2022/08/11 14:52:56;;;;;;;;;8.00;8.00;;;;;37.86;14.80;101290.59;6311005;22;45357;-78
2022/08/11 14:58:16;;;;;;;;;7.50;7.00;;;;;37.90;14.76;101271.84;6340506;22;45420;-78
2022/08/11 15:00:43;;;;;;;;;8.00;7.75;;;;;37.87;15.21;101269.44;6337774;22;46832;-78
2022/08/11 15:03:11;;;;;;;;;9.25;8.50;;;;;37.80;14.73;101251.91;6340342;22;45399;-78
2022/08/11 15:05:56;;;;;;;;;7.50;7.50;;;;;37.76;15.20;101254.16;6311879;22;45314;-78
2022/08/11 15:12:07;;;;;;;;;9.50;8.50;;;;;37.64;14.79;101241.78;6339921;22;45707;-78
2022/08/11 15:13:56;;;;;;;;;7.75;7.75;;;;;37.64;15.03;101250.00;6335944;22;45538;-78
2022/08/11 15:19:08;;;;;;;;;9.75;9.75;;;;;37.65;15.16;101240.75;6340187;22;45243;-77
2022/08/11 15:24:18;;;;;;;;;6.50;6.50;;;;;37.67;14.90;101242.31;6339845;22;45357;-78
2022/08/11 15:37:42;;;;;;;;;9.50;7.75;;;;;37.65;14.92;101229.78;6323716;22;45236;-78
2022/08/11 15:45:54;;;;;;;;;7.00;7.00;;;;;37.57;14.20;101232.50;6341358;22;45366;-77
2022/08/11 15:48:22;;;;;;;;;7.25;7.25;;;;;37.57;14.23;101232.50;6341001;22;45330;-77
2022/08/11 15:50:54;;;;;;;;;9.50;8.75;;;;;37.55;15.15;101212.59;6312957;22;45393;-78
2022/08/11 15:53:25;;;;;;;;;8.00;8.00;;;;;37.58;14.28;101225.97;6338305;22;46533;-78
2022/08/11 15:55:52;;;;;;;;;8.00;8.00;;;;;37.53;14.40;101223.72;6312761;22;45377;-78
2022/08/11 16:04:12;;;;;;;;;8.00;8.00;;;;;37.57;15.05;101218.78;6341309;22;45233;-77
2022/08/11 16:06:48;;;;;;;;;9.00;9.00;;;;;37.64;14.72;101220.66;6313134;22;45216;-77
2022/08/11 16:09:16;;;;;;;;;10.25;8.50;;;;;37.60;14.54;101213.78;6340960;22;45444;-78
2022/08/11 16:11:44;;;;;;;;;8.25;8.25;;;;;37.62;14.97;101214.47;6338564;22;45840;-77
2022/08/11 16:16:59;;;;;;;;;8.00;7.50;;;;;37.61;14.96;101209.13;6341127;22;45465;-77
2022/08/11 16:19:27;;;;;;;;;8.75;8.50;;;;;37.57;14.71;101213.28;6313286;22;45408;-77
2022/08/11 16:21:56;;;;;;;;;7.75;7.75;;;;;37.54;14.57;101211.72;6340948;22;45412;-77